Time;durP1;ratioP1;P1;durP2;ratioP2;P2;SDS_P1;SDS_P2;PMS_P1;PMS_P2;Temp;Humidity;BMP_temperature;BMP_pressure;BME280_temperature;BME280_humidity;BME280_pressure;Samples;Min_cycle;Max_cycle;Signal;HPM_P1;HPM_P2
2021/12/02 00:00:33;;;;;;;;;7.50;6.00;;;;;6.20;75.74;100054.00;4966542;28;45241;-68
2021/12/02 00:02:58;;;;;;;;;6.00;6.00;;;;;6.17;76.26;100043.41;4965642;28;45279;-68
2021/12/02 00:05:24;;;;;;;;;11.25;6.50;;;;;6.26;76.04;100058.53;4960722;28;45406;-68
2021/12/02 00:07:51;;;;;;;;;6.00;4.25;;;;;6.27;75.33;100057.69;4974429;28;45497;-68
2021/12/02 00:10:17;;;;;;;;;6.50;5.50;;;;;6.31;75.43;100069.19;4959833;28;45281;-68
2021/12/02 00:12:42;;;;;;;;;6.00;3.00;;;;;6.30;75.93;100068.25;4967132;28;47373;-69
2021/12/02 00:15:17;;;;;;;;;6.25;4.25;;;;;6.24;75.76;100054.97;4958672;28;45472;-67
2021/12/02 00:17:51;;;;;;;;;7.00;3.00;;;;;6.27;75.47;100062.94;4961124;28;45275;-67
2021/12/02 00:23:27;;;;;;;;;6.75;5.75;;;;;6.35;75.52;100079.78;4960749;28;45560;-69
2021/12/02 00:25:53;;;;;;;;;7.25;6.00;;;;;6.26;76.18;100064.66;4958316;28;46380;-68
2021/12/02 00:28:20;;;;;;;;;8.00;7.00;;;;;6.37;76.09;100079.84;4960810;28;45720;-67
2021/12/02 00:30:45;;;;;;;;;11.00;11.00;;;;;6.38;75.53;100081.63;4958745;28;45288;-67
2021/12/02 00:33:13;;;;;;;;;7.00;7.00;;;;;6.42;74.64;100076.50;4958653;28;45469;-69
2021/12/02 00:35:39;;;;;;;;;22.75;20.25;;;;;6.31;75.43;100061.31;4960384;28;45272;-67
2021/12/02 00:38:05;;;;;;;;;18.50;18.25;;;;;6.34;75.46;100074.50;4962729;28;45219;-69
2021/12/02 00:40:34;;;;;;;;;18.25;13.00;;;;;6.36;75.69;100072.81;4958198;28;45230;-70
2021/12/02 00:42:59;;;;;;;;;18.75;17.75;;;;;6.38;75.33;100087.75;4963518;28;45530;-67
2021/12/02 00:45:26;;;;;;;;;8.50;8.50;;;;;6.41;75.67;100085.25;4960150;28;46072;-68
2021/12/02 00:47:52;;;;;;;;;11.75;11.50;;;;;6.38;75.48;100079.00;5026995;27;45358;-67
2021/12/02 00:50:18;;;;;;;;;15.50;12.75;;;;;6.43;75.68;100090.53;4958181;28;45431;-67
2021/12/02 00:52:45;;;;;;;;;6.00;5.50;;;;;6.41;75.97;100093.13;4958089;28;47002;-68
2021/12/02 00:55:11;;;;;;;;;6.00;4.00;;;;;6.41;75.83;100086.97;4966504;28;45627;-69
2021/12/02 00:57:41;;;;;;;;;10.00;8.25;;;;;6.42;75.92;100097.50;4960268;28;45369;-68
2021/12/02 01:00:07;;;;;;;;;18.25;14.50;;;;;6.43;76.37;100101.91;4960632;28;45314;-68
2021/12/02 01:02:34;;;;;;;;;19.75;17.25;;;;;6.43;77.02;100107.16;4990501;28;46451;-69
2021/12/02 01:05:00;;;;;;;;;13.00;11.25;;;;;6.45;76.01;100101.97;4957999;28;45547;-69
2021/12/02 01:07:26;;;;;;;;;21.50;19.25;;;;;6.45;76.57;100108.09;4960233;28;45491;-69
2021/12/02 01:09:52;;;;;;;;;14.50;13.00;;;;;6.44;75.53;100098.47;4958052;28;45296;-69
2021/12/02 01:12:17;;;;;;;;;22.75;20.00;;;;;6.42;76.24;100108.00;4957521;28;46403;-69
2021/12/02 01:14:44;;;;;;;;;26.25;25.25;;;;;6.44;76.04;100114.22;4959147;28;46082;-69
2021/12/02 01:17:10;;;;;;;;;33.75;32.50;;;;;6.44;75.83;100110.66;4958488;28;45371;-69
2021/12/02 01:19:35;;;;;;;;;27.50;27.50;;;;;6.50;76.21;100108.25;4959986;28;45339;-69
2021/12/02 01:22:01;;;;;;;;;32.50;30.00;;;;;6.43;75.98;100101.03;4957864;28;45387;-69
2021/12/02 01:24:28;;;;;;;;;41.50;35.25;;;;;6.49;76.06;100115.22;4963068;28;46798;-69
2021/12/02 01:26:55;;;;;;;;;28.25;27.75;;;;;6.51;76.44;100112.66;4958091;28;45385;-69
2021/12/02 01:29:22;;;;;;;;;32.00;28.00;;;;;6.52;76.04;100113.53;4960129;28;45379;-69
2021/12/02 01:31:51;;;;;;;;;32.00;28.50;;;;;6.52;76.01;100114.41;4956986;28;45560;-69
2021/12/02 01:34:21;;;;;;;;;20.00;17.50;;;;;6.49;75.87;100116.94;4959908;28;46398;-69
2021/12/02 01:36:49;;;;;;;;;25.25;24.00;;;;;6.54;76.17;100130.22;4957876;28;45202;-69
2021/12/02 01:39:15;;;;;;;;;26.25;24.50;;;;;6.52;77.08;100137.16;4963695;28;45683;-69
2021/12/02 01:41:55;;;;;;;;;37.75;33.50;;;;;6.50;77.52;100137.13;4957742;28;45302;-69
2021/12/02 01:44:22;;;;;;;;;32.75;27.50;;;;;6.52;75.86;100140.66;4968272;28;45186;-69
2021/12/02 01:46:51;;;;;;;;;47.50;40.00;;;;;6.52;77.24;100153.78;5029523;28;45353;-69
2021/12/02 01:49:19;;;;;;;;;28.00;24.25;;;;;6.53;76.80;100152.09;4962682;28;45389;-69
2021/12/02 01:51:47;;;;;;;;;40.50;37.50;;;;;6.53;76.84;100154.72;4957379;28;45551;-69
2021/12/02 01:54:16;;;;;;;;;36.00;35.50;;;;;6.55;75.99;100156.50;4967822;28;46558;-69
2021/12/02 01:56:55;;;;;;;;;42.00;34.25;;;;;6.52;77.18;100150.28;4956756;28;45544;-69
2021/12/02 01:59:20;;;;;;;;;31.50;31.50;;;;;6.55;76.91;100163.50;4967051;28;46088;-69
2021/12/02 02:01:51;;;;;;;;;24.75;22.75;;;;;6.47;76.10;100152.78;4956108;28;47029;-69
2021/12/02 02:04:19;;;;;;;;;15.00;15.00;;;;;6.58;77.13;100172.38;4958853;28;45463;-69
2021/12/02 02:07:03;;;;;;;;;43.25;38.75;;;;;6.55;76.53;100182.75;4957357;28;45283;-69
2021/12/02 02:09:32;;;;;;;;;29.75;23.00;;;;;6.54;77.18;100178.38;4962250;28;45737;-70
2021/12/02 02:12:01;;;;;;;;;18.00;17.25;;;;;6.59;75.75;100187.28;4957125;28;45342;-69
2021/12/02 02:14:27;;;;;;;;;37.75;32.00;;;;;6.58;76.40;100187.22;4960113;28;45516;-69
2021/12/02 02:16:54;;;;;;;;;16.50;15.50;;;;;6.65;76.87;100191.84;4955889;28;45867;-69
2021/12/02 02:19:19;;;;;;;;;11.75;11.75;;;;;6.58;76.14;100174.09;4959482;28;45390;-69
2021/12/02 02:21:45;;;;;;;;;18.75;16.50;;;;;6.61;75.50;100182.06;4957477;28;45166;-68
2021/12/02 02:24:14;;;;;;;;;12.00;12.00;;;;;6.61;75.61;100185.59;4962210;28;48057;-68
2021/12/02 02:26:40;;;;;;;;;30.00;24.00;;;;;6.66;75.88;100197.09;4976836;28;45309;-68
2021/12/02 02:29:07;;;;;;;;;9.00;9.00;;;;;6.59;75.70;100200.41;4960034;28;45328;-69
2021/12/02 02:31:35;;;;;;;;;8.25;8.25;;;;;6.67;75.87;100204.16;4957335;28;45283;-68
2021/12/02 02:34:01;;;;;;;;;12.50;7.00;;;;;6.61;75.90;100201.38;4959031;28;46365;-69
2021/12/02 02:36:30;;;;;;;;;8.25;8.00;;;;;6.61;76.49;100205.69;4956738;28;45426;-68
2021/12/02 02:38:57;;;;;;;;;8.00;7.00;;;;;6.62;76.15;100205.75;4958574;28;45340;-69
2021/12/02 02:41:28;;;;;;;;;8.50;7.00;;;;;6.68;75.39;100215.56;4957965;28;45485;-69
2021/12/02 02:43:57;;;;;;;;;5.00;5.00;;;;;6.70;74.96;100227.00;4969010;28;45500;-69
2021/12/02 02:46:36;;;;;;;;;5.00;4.00;;;;;6.61;75.06;100210.94;5012056;28;45421;-68
2021/12/02 02:49:04;;;;;;;;;5.00;2.00;;;;;6.68;74.74;100219.06;4981780;27;45251;-69
2021/12/02 02:51:31;;;;;;;;;3.75;3.00;;;;;6.67;74.91;100224.28;4959889;28;45344;-69
2021/12/02 02:54:03;;;;;;;;;4.00;2.00;;;;;6.63;75.38;100220.66;4968834;28;45375;-68
2021/12/02 02:56:30;;;;;;;;;4.50;3.00;;;;;6.56;74.66;100210.81;4960107;28;45501;-69
2021/12/02 03:09:39;;;;;;;;;1.75;1.75;;;;;6.61;74.36;100240.75;4961722;28;45415;-69
2021/12/02 03:12:18;;;;;;;;;1.00;1.00;;;;;6.63;74.17;100256.53;4965481;28;45359;-69
2021/12/02 03:17:11;;;;;;;;;5.00;3.00;;;;;6.61;74.13;100253.88;4959774;28;45501;-69
2021/12/02 03:19:41;;;;;;;;;7.25;6.75;;;;;6.57;75.13;100257.22;4961646;28;45236;-69
2021/12/02 03:22:07;;;;;;;;;2.00;2.00;;;;;6.61;74.82;100266.09;4959891;28;45481;-69
2021/12/02 03:24:32;;;;;;;;;8.75;7.75;;;;;6.54;74.35;100258.88;4960450;28;45370;-69
2021/12/02 03:26:57;;;;;;;;;3.75;2.00;;;;;6.57;74.27;100265.13;4959563;28;45159;-69
2021/12/02 03:29:23;;;;;;;;;7.75;7.75;;;;;6.56;73.74;100270.34;4961864;28;45861;-69
2021/12/02 03:31:49;;;;;;;;;3.00;1.00;;;;;6.49;74.79;100256.09;4968413;28;47381;-69
2021/12/02 03:34:15;;;;;;;;;3.50;2.00;;;;;6.51;73.91;100259.66;4961260;28;45300;-69
2021/12/02 03:36:41;;;;;;;;;2.00;2.00;;;;;6.51;73.77;100275.44;4959297;28;45478;-69
2021/12/02 03:39:10;;;;;;;;;1.75;1.75;;;;;6.54;73.93;100283.41;4962111;28;45395;-69
2021/12/02 03:41:37;;;;;;;;;0.25;0.25;;;;;6.48;73.85;100281.47;4957995;28;45996;-69
2021/12/02 03:44:03;;;;;;;;;1.75;1.75;;;;;6.48;74.01;100284.09;4969249;28;45265;-69
2021/12/02 03:46:28;;;;;;;;;3.00;2.00;;;;;6.42;73.97;100278.66;5015259;28;45434;-69
2021/12/02 03:48:55;;;;;;;;;1.00;1.00;;;;;6.41;73.93;100295.25;4980077;27;45367;-68
2021/12/02 03:51:21;;;;;;;;;1.50;1.00;;;;;6.38;72.66;100300.38;4976974;27;45304;-68
2021/12/02 03:53:47;;;;;;;;;0.00;0.00;;;;;6.27;72.82;100292.16;4968070;28;45632;-68
2021/12/02 03:56:13;;;;;;;;;3.00;2.00;;;;;6.28;71.50;100301.81;4968458;28;45942;-69
2021/12/02 03:58:41;;;;;;;;;0.50;0.50;;;;;6.22;71.34;100296.38;5009795;28;45402;-69
2021/12/02 04:01:08;;;;;;;;;1.50;1.50;;;;;6.22;71.60;100303.34;4992887;28;45479;-69
2021/12/02 04:03:34;;;;;;;;;5.50;3.00;;;;;6.12;70.70;100302.13;4970651;28;45788;-68
2021/12/02 04:06:00;;;;;;;;;3.00;2.00;;;;;6.02;70.38;100292.16;4958923;28;45462;-69
2021/12/02 04:09:14;;;;;;;;;3.00;3.00;;;;;6.07;71.28;100298.44;4961016;28;45470;-68
2021/12/02 04:13:59;;;;;;;;;8.25;3.25;;;;;5.98;70.46;100306.03;4964819;28;45387;-68
2021/12/02 04:16:26;;;;;;;;;6.00;1.50;;;;;5.94;71.41;100309.38;4958772;28;45266;-69
2021/12/02 04:18:51;;;;;;;;;2.00;2.00;;;;;5.84;71.07;100289.75;4959760;28;45303;-69
2021/12/02 04:21:16;;;;;;;;;11.00;11.00;;;;;5.81;71.56;100300.16;4970258;28;46061;-68
2021/12/02 04:23:42;;;;;;;;;10.25;8.25;;;;;5.75;70.41;100297.31;4961507;28;48102;-68
2021/12/02 04:26:07;;;;;;;;;5.00;5.00;;;;;5.73;71.26;100312.09;4974545;28;45226;-68
2021/12/02 04:28:33;;;;;;;;;1.00;1.00;;;;;5.71;70.00;100317.28;4970453;28;45777;-69
2021/12/02 04:31:00;;;;;;;;;3.25;3.00;;;;;5.55;69.97;100302.75;4963138;28;45497;-68
2021/12/02 04:33:25;;;;;;;;;2.75;2.00;;;;;5.51;70.39;100307.81;4963176;28;46326;-68
2021/12/02 04:35:52;;;;;;;;;5.00;5.00;;;;;5.48;70.25;100319.06;4958393;28;45328;-68
2021/12/02 04:38:21;;;;;;;;;5.50;4.75;;;;;5.43;70.88;100333.72;4963591;28;45287;-68
2021/12/02 04:40:46;;;;;;;;;3.00;3.00;;;;;5.39;70.79;100334.47;4958137;28;45217;-68
2021/12/02 04:43:13;;;;;;;;;3.25;1.25;;;;;5.36;71.40;100336.97;4961793;28;46411;-69
2021/12/02 04:45:38;;;;;;;;;14.50;8.50;;;;;5.32;70.83;100342.91;4987977;28;45381;-68
2021/12/02 04:48:04;;;;;;;;;8.50;7.25;;;;;5.25;70.67;100346.16;5004730;27;45441;-68
2021/12/02 04:50:30;;;;;;;;;2.50;1.25;;;;;5.12;71.08;100329.06;4958378;28;45387;-68
2021/12/02 04:52:55;;;;;;;;;13.50;12.75;;;;;5.09;71.04;100334.19;4960646;28;45355;-68
2021/12/02 04:55:21;;;;;;;;;2.00;2.00;;;;;5.12;70.90;100352.63;4966516;28;45356;-68
2021/12/02 04:57:48;;;;;;;;;5.00;5.00;;;;;5.08;71.13;100340.25;4960884;28;45238;-68
2021/12/02 05:00:15;;;;;;;;;8.25;7.75;;;;;5.05;71.67;100356.75;4966791;28;46247;-68
2021/12/02 05:02:41;;;;;;;;;7.50;3.00;;;;;5.00;71.44;100354.78;4974238;28;45441;-68
2021/12/02 05:05:08;;;;;;;;;3.75;2.50;;;;;4.98;71.60;100359.94;4960567;28;45274;-68
2021/12/02 05:07:34;;;;;;;;;7.50;6.00;;;;;4.93;71.80;100364.13;4958989;28;45409;-68
2021/12/02 05:09:59;;;;;;;;;7.25;3.50;;;;;4.94;71.91;100372.03;4957874;28;45415;-68
2021/12/02 05:12:25;;;;;;;;;8.50;5.75;;;;;4.85;72.21;100360.31;4958317;28;48274;-68
2021/12/02 05:14:50;;;;;;;;;15.25;14.25;;;;;4.79;72.10;100366.19;4957726;28;45288;-69
2021/12/02 05:17:16;;;;;;;;;16.25;16.00;;;;;4.79;71.90;100379.28;4958606;28;45312;-69
2021/12/02 05:19:41;;;;;;;;;13.25;10.50;;;;;4.76;71.96;100375.63;4960097;28;45526;-68
2021/12/02 05:22:08;;;;;;;;;20.00;19.25;;;;;4.64;72.05;100362.94;4958187;28;45414;-68
2021/12/02 05:24:33;;;;;;;;;29.25;25.25;;;;;4.67;71.74;100377.03;4959603;28;45201;-68
2021/12/02 05:26:58;;;;;;;;;19.25;15.50;;;;;4.63;72.15;100367.28;4958335;28;45171;-68
2021/12/02 05:29:24;;;;;;;;;29.00;26.00;;;;;4.67;72.61;100381.38;4960023;28;45435;-69
2021/12/02 05:31:49;;;;;;;;;26.00;24.50;;;;;4.57;72.68;100374.88;4957762;28;45739;-68
2021/12/02 05:34:14;;;;;;;;;22.75;20.75;;;;;4.60;72.56;100387.22;4959926;28;45909;-68
2021/12/02 05:36:40;;;;;;;;;17.50;16.75;;;;;4.50;72.56;100383.31;4956608;28;45214;-67
2021/12/02 05:39:05;;;;;;;;;48.00;38.50;;;;;4.47;72.76;100386.69;4961619;28;45525;-68
2021/12/02 05:41:31;;;;;;;;;27.50;25.00;;;;;4.44;72.64;100383.94;4957740;28;45661;-68
2021/12/02 05:43:57;;;;;;;;;18.00;14.75;;;;;4.45;72.79;100392.69;4966827;28;45304;-68
2021/12/02 05:46:22;;;;;;;;;19.25;13.50;;;;;4.40;72.51;100374.19;5010008;28;45392;-68
2021/12/02 05:48:48;;;;;;;;;25.75;21.00;;;;;4.43;72.76;100386.50;4982181;28;45416;-68
2021/12/02 05:51:13;;;;;;;;;20.75;17.50;;;;;4.37;72.86;100387.16;4963752;28;47160;-68
2021/12/02 05:53:39;;;;;;;;;51.25;40.00;;;;;4.38;72.61;100399.38;4964134;28;45380;-67
2021/12/02 05:56:04;;;;;;;;;42.75;40.75;;;;;4.33;72.58;100393.06;4961464;28;45575;-68
2021/12/02 05:58:30;;;;;;;;;37.75;31.50;;;;;4.33;72.67;100397.41;4963017;28;45569;-68
2021/12/02 06:00:55;;;;;;;;;47.50;40.75;;;;;4.28;72.65;100401.53;4962878;28;45544;-68
2021/12/02 06:03:20;;;;;;;;;53.50;41.75;;;;;4.22;73.08;100405.66;4959533;28;45332;-68
2021/12/02 06:05:47;;;;;;;;;33.50;32.25;;;;;4.16;72.94;100397.56;4956406;28;45395;-68
2021/12/02 06:08:14;;;;;;;;;30.75;22.25;;;;;4.18;72.89;100409.00;4959450;28;45503;-68
2021/12/02 06:10:39;;;;;;;;;25.50;23.00;;;;;4.12;72.61;100406.13;4955810;28;48131;-67
2021/12/02 06:13:04;;;;;;;;;29.50;25.50;;;;;4.14;72.86;100407.06;4959781;28;45213;-68
2021/12/02 06:15:30;;;;;;;;;12.25;12.00;;;;;3.90;73.36;100378.13;4965427;28;45299;-68
2021/12/02 06:17:55;;;;;;;;;39.25;37.75;;;;;4.04;72.88;100397.94;4974636;28;45477;-68
2021/12/02 06:20:20;;;;;;;;;28.25;26.25;;;;;4.05;73.16;100411.91;4960876;28;45358;-69
2021/12/02 06:22:47;;;;;;;;;38.75;35.75;;;;;4.06;73.09;100411.06;4960143;28;45416;-68
2021/12/02 06:27:52;;;;;;;;;45.00;41.25;;;;;3.96;73.18;100404.53;4959233;28;45458;-67
2021/12/02 06:30:18;;;;;;;;;36.00;33.00;;;;;3.97;72.75;100403.69;4962626;28;47253;-68
2021/12/02 06:32:44;;;;;;;;;56.50;43.50;;;;;3.95;72.96;100401.84;4958568;28;45578;-68
2021/12/02 06:35:11;;;;;;;;;32.25;27.25;;;;;3.97;73.17;100418.50;4972883;28;45450;-68
2021/12/02 06:37:37;;;;;;;;;32.50;26.50;;;;;3.89;72.82;100414.66;4959103;28;45295;-68
2021/12/02 06:40:04;;;;;;;;;27.00;25.50;;;;;3.80;73.01;100405.56;4965194;28;45307;-68
2021/12/02 06:42:29;;;;;;;;;38.75;31.00;;;;;3.86;72.76;100419.75;4959091;28;45363;-68
2021/12/02 06:44:57;;;;;;;;;32.25;23.75;;;;;3.86;73.21;100423.25;4963527;28;45279;-68
2021/12/02 06:47:27;;;;;;;;;26.50;21.75;;;;;3.80;73.08;100430.81;4963953;28;45418;-68
2021/12/02 06:49:53;;;;;;;;;32.75;29.00;;;;;3.78;72.98;100441.22;4963855;28;46159;-68
2021/12/02 06:52:18;;;;;;;;;20.75;17.50;;;;;3.82;73.22;100460.56;4958815;28;45279;-68
2021/12/02 06:54:43;;;;;;;;;16.25;16.25;;;;;3.79;73.15;100468.25;4963244;28;45288;-68
2021/12/02 06:57:09;;;;;;;;;18.50;15.00;;;;;3.74;73.19;100470.66;4958985;28;46523;-68
2021/12/02 06:59:35;;;;;;;;;25.25;18.00;;;;;3.77;73.35;100480.34;4969265;28;47106;-67
2021/12/02 07:02:01;;;;;;;;;16.00;13.00;;;;;3.79;73.74;100478.72;4958546;28;45482;-67
2021/12/02 07:04:26;;;;;;;;;13.00;10.50;;;;;3.75;73.33;100475.06;4963581;28;45411;-69
2021/12/02 07:06:51;;;;;;;;;8.50;8.00;;;;;3.84;73.49;100495.50;4958923;28;46245;-67
2021/12/02 07:09:17;;;;;;;;;5.00;5.00;;;;;3.81;73.08;100483.19;4958408;28;45465;-67
2021/12/02 07:11:43;;;;;;;;;6.25;6.25;;;;;3.90;73.03;100498.41;4958657;28;45363;-67
2021/12/02 07:14:13;;;;;;;;;12.75;9.00;;;;;3.89;73.06;100486.13;4967141;28;45335;-66
2021/12/02 07:16:39;;;;;;;;;13.25;8.75;;;;;3.93;72.96;100493.31;4959370;28;45459;-67
2021/12/02 07:19:07;;;;;;;;;3.00;2.00;;;;;3.94;72.89;100500.31;4961032;28;45453;-69
2021/12/02 07:21:36;;;;;;;;;10.50;10.50;;;;;3.84;72.52;100508.59;4957503;28;45536;-67
2021/12/02 07:24:03;;;;;;;;;33.75;30.75;;;;;3.91;72.92;100525.44;4960499;28;45241;-68
2021/12/02 07:26:28;;;;;;;;;36.00;32.75;;;;;3.85;73.10;100518.22;4970813;28;46446;-67
2021/12/02 07:28:54;;;;;;;;;32.25;25.50;;;;;3.83;72.88;100516.34;4957014;28;45502;-67
2021/12/02 07:31:20;;;;;;;;;23.25;17.50;;;;;3.83;72.70;100525.06;4958523;28;45340;-67
2021/12/02 07:33:48;;;;;;;;;18.50;16.25;;;;;3.82;72.52;100512.84;4958743;28;45355;-67
2021/12/02 07:36:14;;;;;;;;;32.00;27.75;;;;;3.81;72.40;100513.69;4958028;28;45475;-67
2021/12/02 07:38:40;;;;;;;;;29.50;25.25;;;;;3.74;72.90;100508.97;4958340;28;46355;-67
2021/12/02 07:41:06;;;;;;;;;19.50;15.00;;;;;3.71;72.76;100506.22;4958025;28;45456;-67
2021/12/02 07:43:34;;;;;;;;;22.50;10.50;;;;;3.74;72.67;100504.63;4958572;28;45443;-67
2021/12/02 07:46:00;;;;;;;;;5.00;5.00;;;;;3.77;73.17;100502.16;4967579;28;45279;-67
2021/12/02 07:48:26;;;;;;;;;6.25;6.00;;;;;3.83;72.89;100512.00;4957044;28;48174;-67
2021/12/02 07:50:54;;;;;;;;;10.50;6.50;;;;;3.81;73.14;100511.94;4958321;28;45498;-69
2021/12/02 07:53:20;;;;;;;;;15.50;9.00;;;;;3.74;73.25;100495.91;4964472;28;45422;-67
2021/12/02 07:55:50;;;;;;;;;2.50;2.50;;;;;3.86;72.67;100506.03;4974478;28;45335;-67
2021/12/02 07:58:16;;;;;;;;;9.00;6.75;;;;;3.91;72.84;100515.88;4966418;28;46343;-67
2021/12/02 08:00:41;;;;;;;;;7.50;5.25;;;;;3.94;72.81;100517.72;4960482;28;45383;-68
2021/12/02 08:03:09;;;;;;;;;18.25;18.25;;;;;3.96;73.22;100524.81;4964356;28;45472;-67
2021/12/02 08:05:35;;;;;;;;;16.00;12.75;;;;;3.96;73.34;100529.16;4958224;28;45581;-67
2021/12/02 08:08:00;;;;;;;;;25.50;22.75;;;;;4.00;73.08;100537.19;4958282;28;45358;-68
2021/12/02 08:10:27;;;;;;;;;31.50;25.25;;;;;4.03;72.98;100531.22;4969061;28;45435;-67
2021/12/02 08:12:52;;;;;;;;;27.25;26.25;;;;;3.99;72.78;100524.97;4974931;28;45267;-68
2021/12/02 08:15:21;;;;;;;;;24.50;18.75;;;;;4.10;72.79;100538.53;4967792;28;45640;-68
2021/12/02 08:17:47;;;;;;;;;15.25;14.25;;;;;4.14;72.33;100548.31;4960987;28;46577;-68
2021/12/02 08:20:14;;;;;;;;;25.75;25.75;;;;;4.12;72.59;100546.47;4958261;28;45409;-67
2021/12/02 08:22:40;;;;;;;;;23.00;20.25;;;;;4.14;72.62;100553.53;4960732;28;45217;-68
2021/12/02 08:25:07;;;;;;;;;20.00;18.25;;;;;4.20;72.77;100551.22;4969282;28;46753;-68
2021/12/02 08:27:32;;;;;;;;;15.00;11.50;;;;;4.13;72.33;100543.03;4974723;28;46297;-67
2021/12/02 08:29:57;;;;;;;;;29.00;23.75;;;;;4.14;71.64;100550.91;4964774;28;45225;-68
2021/12/02 08:32:23;;;;;;;;;27.75;24.50;;;;;4.16;71.95;100556.22;4974677;28;45241;-67
2021/12/02 08:34:49;;;;;;;;;39.00;30.00;;;;;4.12;72.05;100563.06;4967060;28;46078;-68
2021/12/02 08:37:15;;;;;;;;;41.75;33.00;;;;;4.14;72.48;100565.72;4961856;27;47881;-67
2021/12/02 08:39:41;;;;;;;;;26.00;22.25;;;;;4.08;72.10;100560.22;4968358;28;45324;-68
2021/12/02 08:42:09;;;;;;;;;15.50;14.25;;;;;4.08;72.31;100554.97;4972394;28;45331;-67
2021/12/02 08:44:38;;;;;;;;;14.50;12.50;;;;;4.14;72.48;100570.94;4963284;28;46455;-68
2021/12/02 08:47:06;;;;;;;;;32.75;26.75;;;;;4.09;72.12;100568.16;4962810;28;45720;-68
2021/12/02 08:49:31;;;;;;;;;24.50;20.25;;;;;4.16;72.41;100580.66;4967834;28;45334;-69
2021/12/02 08:51:57;;;;;;;;;45.50;35.75;;;;;4.17;72.28;100577.25;4971759;28;45355;-67
2021/12/02 08:54:22;;;;;;;;;35.00;30.00;;;;;4.22;72.07;100577.44;4968666;28;45344;-67
2021/12/02 08:56:48;;;;;;;;;26.25;19.00;;;;;4.17;72.17;100574.63;4957867;28;46239;-67
2021/12/02 08:59:14;;;;;;;;;24.25;19.75;;;;;4.24;71.57;100578.41;4966602;28;45534;-68
2021/12/02 09:01:39;;;;;;;;;24.75;21.50;;;;;4.26;72.10;100584.63;4969540;28;45531;-67
2021/12/02 09:04:05;;;;;;;;;30.00;23.00;;;;;4.27;71.44;100586.41;4988224;28;45845;-67
2021/12/02 09:06:31;;;;;;;;;26.50;25.00;;;;;4.32;71.31;100599.72;4985709;27;46173;-67
2021/12/02 09:08:59;;;;;;;;;34.00;27.50;;;;;4.31;71.87;100601.41;4965732;28;45339;-68
2021/12/02 09:11:27;;;;;;;;;20.75;20.00;;;;;4.45;72.01;100609.88;4969093;28;45705;-67
2021/12/02 09:13:57;;;;;;;;;14.00;11.00;;;;;4.48;71.25;100605.72;4958056;28;45535;-67
2021/12/02 09:16:24;;;;;;;;;13.50;11.75;;;;;4.54;71.27;100606.78;4964137;28;45523;-68
2021/12/02 09:18:50;;;;;;;;;21.00;15.50;;;;;4.63;71.32;100612.47;5018741;27;45454;-68
2021/12/02 09:21:15;;;;;;;;;18.50;15.25;;;;;4.66;70.75;100610.88;4958164;28;44801;-68
2021/12/02 09:23:40;;;;;;;;;29.50;22.50;;;;;4.70;70.83;100609.28;4957494;28;45407;-67
2021/12/02 09:26:06;;;;;;;;;22.50;17.25;;;;;4.76;70.50;100600.78;4957902;28;46279;-67
2021/12/02 09:28:31;;;;;;;;;16.75;9.50;;;;;4.77;70.38;100606.13;4963254;28;45923;-67
2021/12/02 09:30:56;;;;;;;;;7.25;7.25;;;;;4.90;70.60;100616.31;4966771;28;45257;-67
2021/12/02 09:33:22;;;;;;;;;42.50;36.25;;;;;4.89;70.56;100608.38;4960987;28;45230;-67
2021/12/02 09:35:47;;;;;;;;;53.00;40.50;;;;;4.96;69.95;100613.06;4980153;27;45497;-68
2021/12/02 09:38:13;;;;;;;;;26.75;22.00;;;;;4.97;70.28;100607.00;4958998;28;45258;-67
2021/12/02 09:40:41;;;;;;;;;35.50;30.00;;;;;5.08;70.65;100626.69;4968220;28;46600;-67
2021/12/02 09:43:07;;;;;;;;;35.25;25.00;;;;;5.05;70.46;100609.94;4967663;28;45469;-67
2021/12/02 09:45:33;;;;;;;;;50.25;39.75;;;;;5.21;70.59;100624.59;4967520;28;46218;-67
2021/12/02 09:47:58;;;;;;;;;29.25;26.75;;;;;5.31;69.93;100621.53;4964806;28;45305;-67
2021/12/02 09:50:31;;;;;;;;;31.75;28.75;;;;;5.42;69.91;100627.25;4964491;28;45280;-67
2021/12/02 09:53:06;;;;;;;;;9.00;8.00;;;;;5.47;69.91;100633.56;4965069;28;45306;-67
2021/12/02 09:55:42;;;;;;;;;27.25;16.00;;;;;5.49;68.77;100632.81;4964051;28;45473;-68
2021/12/02 09:58:13;;;;;;;;;12.25;10.00;;;;;5.46;69.32;100629.13;4966901;28;45445;-67
2021/12/02 10:00:46;;;;;;;;;9.50;7.00;;;;;5.47;69.26;100631.84;4965256;28;46442;-67
2021/12/02 10:05:56;;;;;;;;;20.50;16.00;;;;;5.50;69.40;100634.59;4969296;28;45354;-67
2021/12/02 10:08:31;;;;;;;;;26.00;21.75;;;;;5.67;67.65;100640.53;4977566;28;45344;-67
2021/12/02 10:10:59;;;;;;;;;31.25;25.75;;;;;5.79;67.99;100630.53;4963710;28;45350;-67
2021/12/02 10:16:04;;;;;;;;;11.00;9.75;;;;;5.90;68.13;100648.44;4965339;28;46280;-67
2021/12/02 10:19:05;;;;;;;;;12.00;10.50;;;;;6.00;67.88;100651.53;4964764;28;45376;-67
2021/12/02 10:22:21;;;;;;;;;12.25;9.50;;;;;5.90;67.28;100645.81;4970180;27;45299;-67
2021/12/02 10:24:28;;;;;;;;;17.00;12.25;;;;;5.90;67.67;100633.59;4967647;28;46242;-67
2021/12/02 10:27:00;;;;;;;;;8.75;8.75;;;;;6.09;66.36;100648.38;4962111;28;45481;-67
2021/12/02 10:29:32;;;;;;;;;14.75;11.00;;;;;6.18;66.26;100645.22;4965623;28;45174;-67
2021/12/02 10:32:16;;;;;;;;;8.75;6.00;;;;;6.31;66.88;100654.50;4965722;28;45295;-67
2021/12/02 10:34:52;;;;;;;;;8.00;7.75;;;;;6.24;64.98;100650.72;4962675;28;46153;-67
2021/12/02 10:37:23;;;;;;;;;16.25;16.00;;;;;6.22;65.52;100645.41;4964274;28;48051;-66
2021/12/02 10:40:00;;;;;;;;;12.25;8.00;;;;;6.22;64.60;100648.03;4967553;28;45237;-67
2021/12/02 10:42:27;;;;;;;;;17.50;16.00;;;;;6.23;65.17;100641.94;4968569;28;45363;-66
2021/12/02 10:44:54;;;;;;;;;9.75;6.00;;;;;6.12;63.76;100637.13;4966028;28;45602;-66
2021/12/02 10:47:21;;;;;;;;;13.00;13.00;;;;;6.07;65.07;100625.53;4967043;28;45406;-67
2021/12/02 10:49:51;;;;;;;;;11.25;8.00;;;;;6.20;65.33;100639.22;4965088;28;45291;-66
2021/12/02 10:52:28;;;;;;;;;7.75;4.25;;;;;6.24;65.29;100637.59;4963692;28;45348;-66
2021/12/02 10:55:09;;;;;;;;;13.25;12.50;;;;;6.31;64.78;100630.88;4960070;28;47269;-66
2021/12/02 10:57:37;;;;;;;;;11.75;7.25;;;;;6.33;63.86;100624.84;4961479;28;45581;-67
2021/12/02 11:00:08;;;;;;;;;16.75;8.00;;;;;6.35;64.50;100631.03;4964186;28;45343;-66
2021/12/02 11:02:36;;;;;;;;;10.25;7.00;;;;;6.39;64.37;100624.19;4961817;28;45271;-66
2021/12/02 11:05:20;;;;;;;;;6.25;4.00;;;;;6.39;64.35;100613.69;4973253;28;46362;-68
2021/12/02 11:07:58;;;;;;;;;6.00;6.00;;;;;6.33;64.19;100609.09;4992344;28;45496;-66
2021/12/02 11:10:25;;;;;;;;;8.50;8.50;;;;;6.32;62.56;100616.91;4960001;27;45359;-66
2021/12/02 11:12:53;;;;;;;;;7.50;6.75;;;;;6.31;62.60;100615.13;4958761;28;45234;-66
2021/12/02 11:15:25;;;;;;;;;9.00;7.75;;;;;6.34;63.46;100625.72;4966892;28;45442;-66
2021/12/02 11:17:59;;;;;;;;;7.25;7.25;;;;;6.29;60.84;100633.41;4978323;28;45633;-66
2021/12/02 11:20:28;;;;;;;;;13.00;11.00;;;;;6.21;61.32;100619.09;4960070;28;45298;-66
2021/12/02 11:22:59;;;;;;;;;7.00;6.00;;;;;6.10;59.20;100616.06;4959725;28;45473;-66
2021/12/02 11:25:25;;;;;;;;;7.00;5.50;;;;;6.05;59.50;100618.53;4959482;28;45359;-66
2021/12/02 11:27:52;;;;;;;;;8.00;6.50;;;;;5.95;59.06;100608.47;4959650;28;46403;-67
2021/12/02 11:30:21;;;;;;;;;8.00;7.00;;;;;5.94;59.96;100618.94;4959873;28;45241;-66
2021/12/02 11:32:50;;;;;;;;;5.00;5.00;;;;;5.92;60.28;100618.81;4959754;28;45276;-66
2021/12/02 11:35:42;;;;;;;;;5.75;5.00;;;;;5.89;58.42;100625.69;4958485;28;46885;-66
2021/12/02 11:38:15;;;;;;;;;6.50;6.50;;;;;5.90;57.79;100624.84;4967554;28;45580;-66
2021/12/02 11:40:50;;;;;;;;;3.00;3.00;;;;;5.91;58.48;100613.50;4977472;28;45328;-66
2021/12/02 11:43:25;;;;;;;;;3.00;3.00;;;;;5.93;57.82;100606.59;4978793;28;45235;-67
2021/12/02 11:45:52;;;;;;;;;0.50;0.50;;;;;5.94;57.52;100609.31;4976575;27;45460;-66
2021/12/02 11:48:23;;;;;;;;;10.25;9.25;;;;;5.91;57.64;100605.63;4967012;28;46631;-66
2021/12/02 11:50:51;;;;;;;;;5.75;2.50;;;;;5.95;58.03;100589.22;4959479;28;45245;-66
2021/12/02 11:53:23;;;;;;;;;7.25;6.00;;;;;6.01;57.66;100595.59;4967824;28;45364;-68